createdAt,value
2023-04-16T00:02:00.891Z,8.99
2023-04-16T00:04:27.385Z,8.99
2023-04-16T00:06:54.783Z,9.01
2023-04-16T00:09:21.318Z,9.01
2023-04-16T00:11:47.731Z,9.01
2023-04-16T00:14:14.116Z,8.99
2023-04-16T00:16:40.600Z,9.01
2023-04-16T00:19:07.257Z,9.02
2023-04-16T00:21:33.768Z,9.02
2023-04-16T00:24:00.284Z,9.01
2023-04-16T00:26:26.706Z,9.01
2023-04-16T00:28:53.050Z,9.02
2023-04-16T00:31:26.918Z,8.97
2023-04-16T00:33:53.387Z,8.97
2023-04-16T00:36:19.758Z,8.97
2023-04-16T00:38:46.163Z,8.98
2023-04-16T00:41:12.553Z,8.99
2023-04-16T00:43:38.980Z,8.99
2023-04-16T00:46:07.116Z,9.00
2023-04-16T00:48:34.945Z,9.00
2023-04-16T00:51:01.832Z,9.02
2023-04-16T00:53:28.887Z,9.00
2023-04-16T00:55:56.143Z,9.01
2023-04-16T00:58:23.579Z,9.00
2023-04-16T01:00:51.660Z,9.00
2023-04-16T01:03:18.137Z,8.98
2023-04-16T01:05:45.992Z,8.98
2023-04-16T01:08:20.450Z,8.97
2023-04-16T01:10:46.947Z,8.96
2023-04-16T01:13:13.569Z,8.97
2023-04-16T01:15:40.039Z,8.97
2023-04-16T01:18:21.284Z,8.96
2023-04-16T01:20:48.841Z,8.97
2023-04-16T01:23:15.964Z,8.95
2023-04-16T01:25:42.324Z,8.95
2023-04-16T01:28:08.694Z,8.95
2023-04-16T01:30:35.110Z,8.96
2023-04-16T01:33:01.560Z,8.96
2023-04-16T01:35:28.238Z,8.94
2023-04-16T01:37:54.883Z,8.96
2023-04-16T01:40:21.364Z,8.95
2023-04-16T01:42:47.894Z,8.95
2023-04-16T01:45:14.368Z,8.94
2023-04-16T01:47:40.843Z,8.93
2023-04-16T01:50:07.801Z,8.93
2023-04-16T01:52:34.287Z,8.94
2023-04-16T01:55:00.758Z,8.91
2023-04-16T01:57:27.122Z,8.89
2023-04-16T01:59:53.504Z,8.89
2023-04-16T02:02:20.099Z,8.91
2023-04-16T02:04:46.576Z,8.89
2023-04-16T02:07:12.956Z,8.90
2023-04-16T02:09:40.928Z,8.92
2023-04-16T02:12:07.883Z,8.93
2023-04-16T02:14:34.283Z,8.93
2023-04-16T02:17:00.835Z,8.91
2023-04-16T02:19:27.326Z,8.92
2023-04-16T02:21:54.822Z,8.90
2023-04-16T02:24:21.631Z,8.93
2023-04-16T02:26:48.296Z,8.94
2023-04-16T02:29:16.392Z,8.93
2023-04-16T02:31:43.063Z,8.96
2023-04-16T02:34:09.463Z,8.96
2023-04-16T02:36:35.997Z,8.97
2023-04-16T02:39:02.536Z,8.95
2023-04-16T02:41:28.969Z,8.97
2023-04-16T02:43:55.354Z,8.97
2023-04-16T02:46:22.025Z,8.97
2023-04-16T02:48:48.483Z,8.97
2023-04-16T02:51:14.894Z,8.97
2023-04-16T02:53:45.468Z,8.98
2023-04-16T02:56:12.868Z,8.98
2023-04-16T02:58:39.268Z,9.00
2023-04-16T03:01:05.761Z,9.01
2023-04-16T03:03:32.182Z,9.01
2023-04-16T03:05:58.589Z,9.02
2023-04-16T03:08:25.162Z,8.99
2023-04-16T03:10:51.615Z,8.99
2023-04-16T03:13:18.061Z,8.99
2023-04-16T03:15:49.606Z,8.99
2023-04-16T03:18:16.410Z,8.99
2023-04-16T03:20:42.822Z,8.99
2023-04-16T03:23:09.297Z,8.98
2023-04-16T03:25:36.573Z,8.98
2023-04-16T03:28:03.793Z,9.00
2023-04-16T03:30:30.315Z,9.01
2023-04-16T03:32:56.724Z,8.99
2023-04-16T03:35:23.128Z,8.98
2023-04-16T03:37:50.277Z,8.99
2023-04-16T03:40:16.787Z,8.99
2023-04-16T03:42:43.175Z,8.99
2023-04-16T03:45:09.848Z,8.97
2023-04-16T03:47:36.231Z,8.96
2023-04-16T03:50:02.766Z,8.95
2023-04-16T03:52:29.238Z,8.94
2023-04-16T03:54:55.787Z,8.94
2023-04-16T03:57:22.147Z,8.94
2023-04-16T03:59:48.508Z,8.96
2023-04-16T04:02:14.965Z,8.94
2023-04-16T04:04:41.467Z,8.96
2023-04-16T04:07:07.998Z,8.95
2023-04-16T04:09:34.385Z,8.93
2023-04-16T04:12:00.928Z,8.94
2023-04-16T04:14:27.362Z,8.95
2023-04-16T04:16:54.260Z,8.93
2023-04-16T04:19:20.780Z,8.93
2023-04-16T04:21:47.162Z,8.93
2023-04-16T04:24:13.582Z,8.93
2023-04-16T04:26:39.972Z,8.94
2023-04-16T04:29:06.564Z,8.96
2023-04-16T04:31:32.994Z,8.94
2023-04-16T04:33:59.383Z,8.96
2023-04-16T04:36:27.143Z,8.95
2023-04-16T04:38:53.516Z,8.95
2023-04-16T04:41:20.052Z,8.96
2023-04-16T04:43:46.392Z,8.95
2023-04-16T04:46:12.857Z,8.94
2023-04-16T04:48:39.217Z,8.94
2023-04-16T04:51:05.854Z,8.96
2023-04-16T04:53:32.227Z,8.95
2023-04-16T04:56:05.431Z,8.94
2023-04-16T04:58:38.370Z,8.94
2023-04-16T05:01:05.113Z,8.94
2023-04-16T05:03:31.693Z,8.96
2023-04-16T05:05:58.124Z,8.95
2023-04-16T05:08:24.483Z,8.92
2023-04-16T05:10:51.089Z,8.94
2023-04-16T05:13:17.469Z,8.93
2023-04-16T05:15:45.029Z,8.94
2023-04-16T05:18:11.448Z,8.93
2023-04-16T05:20:37.962Z,8.94
2023-04-16T05:23:04.401Z,8.94
2023-04-16T05:25:30.962Z,8.94
2023-04-16T05:27:57.386Z,8.95
2023-04-16T05:30:23.786Z,8.93
2023-04-16T05:32:50.341Z,8.92
2023-04-16T05:35:17.613Z,8.94
2023-04-16T05:37:44.329Z,8.94
2023-04-16T05:40:13.760Z,8.97
2023-04-16T05:42:40.187Z,8.95
2023-04-16T05:45:07.066Z,8.94
2023-04-16T05:47:33.466Z,8.92
2023-04-16T05:49:59.848Z,8.94
2023-04-16T05:52:26.262Z,8.95
2023-04-16T05:54:52.643Z,8.96
2023-04-16T05:57:18.996Z,8.96
2023-04-16T05:59:45.554Z,8.97
2023-04-16T06:02:12.403Z,8.99
2023-04-16T06:04:38.847Z,8.99
2023-04-16T06:07:05.548Z,8.99
2023-04-16T06:09:31.898Z,9.01
2023-04-16T06:11:58.300Z,9.00
2023-04-16T06:14:24.740Z,9.01
2023-04-16T06:16:51.203Z,9.02
2023-04-16T06:19:17.577Z,9.04
2023-04-16T06:21:44.075Z,9.04
2023-04-16T06:24:10.565Z,9.07
2023-04-16T06:26:36.995Z,9.07
2023-04-16T06:29:03.353Z,9.08
2023-04-16T06:31:30.366Z,9.05
2023-04-16T06:33:57.010Z,9.06
2023-04-16T06:36:23.542Z,9.07
2023-04-16T06:38:49.912Z,9.06
2023-04-16T06:41:16.322Z,9.08
2023-04-16T06:43:42.712Z,9.08
2023-04-16T06:46:09.122Z,9.07
2023-04-16T06:48:35.687Z,9.09
2023-04-16T06:51:02.254Z,9.07
2023-04-16T06:53:28.657Z,9.07
2023-04-16T06:55:55.562Z,9.08
2023-04-16T06:58:22.499Z,9.07
2023-04-16T07:00:48.908Z,9.08
2023-04-16T07:03:15.538Z,9.09
2023-04-16T07:05:42.034Z,9.08
2023-04-16T07:08:08.490Z,9.08
2023-04-16T07:10:34.983Z,9.12
2023-04-16T07:13:01.668Z,9.14
2023-04-16T07:15:29.002Z,9.14
2023-04-16T07:17:55.629Z,9.14
2023-04-16T07:20:22.118Z,9.16
2023-04-16T07:22:48.574Z,9.16
2023-04-16T07:25:14.930Z,9.16
2023-04-16T07:27:41.310Z,9.17
2023-04-16T07:30:08.150Z,9.15
2023-04-16T07:32:35.041Z,9.18
2023-04-16T07:35:01.632Z,9.18
2023-04-16T07:37:27.989Z,9.18
2023-04-16T07:39:57.497Z,9.20
2023-04-16T07:42:23.962Z,9.21
2023-04-16T07:44:50.415Z,9.23
2023-04-16T07:47:16.814Z,9.24
2023-04-16T07:49:43.303Z,9.24
2023-04-16T07:52:09.681Z,9.25
2023-04-16T07:54:36.243Z,9.26
2023-04-16T07:57:02.685Z,9.27
2023-04-16T07:59:29.543Z,9.27
2023-04-16T08:01:56.437Z,9.27
2023-04-16T08:04:25.473Z,9.30
2023-04-16T08:06:53.045Z,9.31
2023-04-16T08:09:21.597Z,9.33
2023-04-16T08:11:49.881Z,9.33
2023-04-16T08:14:17.057Z,9.32
2023-04-16T08:16:43.405Z,9.30
2023-04-16T08:19:10.168Z,9.32
2023-04-16T08:21:36.865Z,9.31
2023-04-16T08:24:03.316Z,9.32
2023-04-16T08:26:29.690Z,9.35
2023-04-16T08:28:56.035Z,9.34
2023-04-16T08:31:22.529Z,9.34
2023-04-16T08:33:48.938Z,9.36
2023-04-16T08:36:15.329Z,9.39
2023-04-16T08:38:43.499Z,9.42
2023-04-16T08:41:12.430Z,9.42
2023-04-16T08:43:44.410Z,9.46
2023-04-16T08:46:12.516Z,9.47
2023-04-16T08:48:42.041Z,9.48
2023-04-16T08:51:10.660Z,9.50
2023-04-16T08:53:48.278Z,9.53
2023-04-16T08:56:15.750Z,9.56
2023-04-16T08:58:42.309Z,9.59
2023-04-16T09:01:13.557Z,9.62
2023-04-16T09:03:50.004Z,9.63
2023-04-16T09:06:17.199Z,9.65
2023-04-16T09:08:48.417Z,9.67
2023-04-16T09:11:17.956Z,9.67
2023-04-16T09:13:45.984Z,9.68
2023-04-16T09:16:13.459Z,9.72
2023-04-16T09:18:40.353Z,9.73
2023-04-16T09:21:09.956Z,9.75
2023-04-16T09:23:37.483Z,9.77
2023-04-16T09:26:04.847Z,9.79
2023-04-16T09:28:48.694Z,9.81
2023-04-16T09:31:17.123Z,9.82
2023-04-16T09:33:44.563Z,9.83
2023-04-16T09:36:11.165Z,9.80
2023-04-16T09:38:53.683Z,9.81
2023-04-16T09:41:27.516Z,9.84
2023-04-16T09:43:57.991Z,9.85
2023-04-16T09:46:31.713Z,9.85
2023-04-16T09:48:58.311Z,9.87
2023-04-16T09:51:26.928Z,9.89
2023-04-16T09:53:54.866Z,9.90
2023-04-16T09:56:26.123Z,9.91
2023-04-16T09:58:58.169Z,9.93
2023-04-16T10:01:24.977Z,9.94
2023-04-16T10:03:54.634Z,9.94
2023-04-16T10:06:23.104Z,9.93
2023-04-16T10:08:52.898Z,9.94
2023-04-16T10:11:20.532Z,9.94
2023-04-16T10:13:47.140Z,9.95
2023-04-16T10:16:13.639Z,9.96
2023-04-16T10:18:42.538Z,9.96
2023-04-16T10:21:11.931Z,9.96
2023-04-16T10:23:39.811Z,9.97
2023-04-16T10:26:06.737Z,9.98
2023-04-16T10:28:35.398Z,10.00
2023-04-16T10:31:09.038Z,10.00
2023-04-16T10:33:39.292Z,10.04
2023-04-16T10:36:13.617Z,10.06
2023-04-16T10:38:56.584Z,10.04
2023-04-16T10:41:22.965Z,10.03
2023-04-16T10:43:51.528Z,10.06
2023-04-16T10:46:23.641Z,10.07
2023-04-16T10:48:53.322Z,10.09
2023-04-16T10:51:26.204Z,10.09
2023-04-16T10:53:54.501Z,10.10
2023-04-16T10:56:26.324Z,10.10
2023-04-16T10:58:54.091Z,10.12
2023-04-16T11:01:31.364Z,10.13
2023-04-16T11:04:02.220Z,10.15
2023-04-16T11:06:29.565Z,10.16
2023-04-16T11:08:56.164Z,10.16
2023-04-16T11:11:23.278Z,10.17
2023-04-16T11:13:50.038Z,10.17
2023-04-16T11:16:17.104Z,10.19
2023-04-16T11:18:51.276Z,10.21
2023-04-16T11:21:18.414Z,10.25
2023-04-16T11:23:50.162Z,10.25
2023-04-16T11:26:27.842Z,10.24
2023-04-16T11:28:56.696Z,10.24
2023-04-16T11:31:24.022Z,10.22
2023-04-16T11:33:50.868Z,10.21
2023-04-16T11:36:17.461Z,10.19
2023-04-16T11:38:43.936Z,10.17
2023-04-16T11:41:11.104Z,10.15
2023-04-16T11:43:37.680Z,10.17
2023-04-16T11:46:19.980Z,10.19
2023-04-16T11:48:55.483Z,10.19
2023-04-16T11:51:23.540Z,10.21
2023-04-16T11:53:54.100Z,10.25
2023-04-16T11:56:31.456Z,10.24
2023-04-16T11:59:15.724Z,10.27
2023-04-16T12:01:45.871Z,10.26
2023-04-16T12:04:14.249Z,10.29
2023-04-16T12:06:40.885Z,10.30
2023-04-16T12:09:27.278Z,10.34
2023-04-16T12:11:54.017Z,10.37
2023-04-16T12:14:20.445Z,10.38
2023-04-16T12:16:46.989Z,10.36
2023-04-16T12:19:14.023Z,10.40
2023-04-16T12:21:45.755Z,10.43
2023-04-16T12:24:14.806Z,10.44
2023-04-16T12:26:46.543Z,10.43
2023-04-16T12:29:23.250Z,10.44
2023-04-16T12:31:51.149Z,10.44
2023-04-16T12:34:18.857Z,10.45
2023-04-16T12:36:46.323Z,10.46
2023-04-16T12:39:14.485Z,10.46
2023-04-16T12:41:42.842Z,10.46
2023-04-16T12:44:17.825Z,10.45
2023-04-16T12:46:44.795Z,10.45
2023-04-16T12:49:11.675Z,10.47
2023-04-16T12:51:39.137Z,10.48
2023-04-16T12:54:09.886Z,10.53
2023-04-16T12:56:36.515Z,10.59
2023-04-16T12:59:03.428Z,10.66
2023-04-16T13:01:29.910Z,10.70
2023-04-16T13:03:56.620Z,10.73
2023-04-16T13:06:23.345Z,10.73
2023-04-16T13:08:49.712Z,10.76
2023-04-16T13:11:16.489Z,10.75
2023-04-16T13:13:42.895Z,10.72
2023-04-16T13:16:09.432Z,10.74
2023-04-16T13:18:40.108Z,10.73
2023-04-16T13:21:06.665Z,10.72
2023-04-16T13:23:33.067Z,10.74
2023-04-16T13:25:59.466Z,10.77
2023-04-16T13:28:25.947Z,10.78
2023-04-16T13:30:53.044Z,10.79
2023-04-16T13:33:20.699Z,10.80
2023-04-16T13:35:49.081Z,10.81
2023-04-16T13:38:15.872Z,10.83
2023-04-16T13:40:44.663Z,10.83
2023-04-16T13:43:13.803Z,10.83
2023-04-16T13:46:02.008Z,10.85
2023-04-16T13:48:29.301Z,10.82
2023-04-16T13:50:56.174Z,10.84
2023-04-16T13:53:24.623Z,10.84
2023-04-16T13:56:15.258Z,10.82
2023-04-16T13:58:41.853Z,10.83
2023-04-16T14:01:09.814Z,10.85
2023-04-16T14:03:38.450Z,10.85
2023-04-16T14:06:05.549Z,10.83
2023-04-16T14:08:32.028Z,10.86
2023-04-16T14:10:58.794Z,10.88
2023-04-16T14:13:25.470Z,10.91
2023-04-16T14:15:54.922Z,10.98
2023-04-16T14:18:21.348Z,11.03
2023-04-16T14:20:48.198Z,11.08
2023-04-16T14:23:14.593Z,11.08
2023-04-16T14:25:40.960Z,11.10
2023-04-16T14:28:08.903Z,11.13
2023-04-16T14:30:35.362Z,11.17
2023-04-16T14:33:02.668Z,11.23
2023-04-16T14:35:29.143Z,11.26
2023-04-16T14:37:56.050Z,11.26
2023-04-16T14:40:22.492Z,11.25
2023-04-16T14:42:48.872Z,11.21
2023-04-16T14:45:16.013Z,11.18
2023-04-16T14:47:47.982Z,11.13
2023-04-16T14:50:15.611Z,11.12
2023-04-16T14:52:42.356Z,11.11
2023-04-16T14:55:08.882Z,11.10
2023-04-16T14:57:35.315Z,11.09
2023-04-16T15:00:02.140Z,11.09
2023-04-16T15:02:28.962Z,11.09
2023-04-16T15:04:55.606Z,11.06
2023-04-16T15:07:22.203Z,11.08
2023-04-16T15:09:48.557Z,11.10
2023-04-16T15:12:15.511Z,11.11
2023-04-16T15:14:43.366Z,11.17
2023-04-16T15:17:10.047Z,11.25
2023-04-16T15:19:36.714Z,11.30
2023-04-16T15:22:03.151Z,11.35
2023-04-16T15:24:29.595Z,11.35
2023-04-16T15:26:56.169Z,11.34
2023-04-16T15:29:22.548Z,11.34
2023-04-16T15:31:48.936Z,11.37
2023-04-16T15:34:15.410Z,11.35
2023-04-16T15:36:42.049Z,11.34
2023-04-16T15:39:09.740Z,11.37
2023-04-16T15:41:47.004Z,11.36
2023-04-16T15:44:23.828Z,11.32
2023-04-16T15:46:50.325Z,11.30
2023-04-16T15:49:16.788Z,11.27
2023-04-16T15:51:43.253Z,11.23
2023-04-16T15:54:09.766Z,11.18
2023-04-16T15:56:36.207Z,11.17
2023-04-16T15:59:03.785Z,11.16
2023-04-16T16:01:31.082Z,11.14
2023-04-16T16:03:57.782Z,11.11
2023-04-16T16:06:24.614Z,11.11
2023-04-16T16:08:51.144Z,11.08
2023-04-16T16:11:17.612Z,11.06
2023-04-16T16:13:44.093Z,11.04
2023-04-16T16:16:10.708Z,11.02
2023-04-16T16:18:37.377Z,11.01
2023-04-16T16:21:03.948Z,10.99
2023-04-16T16:23:30.413Z,10.97
2023-04-16T16:25:56.904Z,10.97
2023-04-16T16:28:25.030Z,10.95
2023-04-16T16:30:53.768Z,10.93
2023-04-16T16:33:20.737Z,10.93
2023-04-16T16:35:47.278Z,10.93
2023-04-16T16:38:13.743Z,10.93
2023-04-16T16:40:40.212Z,10.93
2023-04-16T16:43:06.618Z,10.92
2023-04-16T16:45:33.004Z,10.92
2023-04-16T16:47:59.401Z,10.89
2023-04-16T16:50:26.112Z,10.88
2023-04-16T16:52:52.501Z,10.84
2023-04-16T16:55:20.191Z,10.81
2023-04-16T16:57:46.592Z,10.79
2023-04-16T17:00:14.245Z,10.75
2023-04-16T17:02:41.230Z,10.70
2023-04-16T17:05:08.257Z,10.65
2023-04-16T17:07:34.652Z,10.58
2023-04-16T17:10:03.814Z,10.56
2023-04-16T17:12:31.828Z,10.53
2023-04-16T17:14:58.300Z,10.52
2023-04-16T17:17:25.133Z,10.48
2023-04-16T17:19:51.595Z,10.43
2023-04-16T17:22:18.260Z,10.40
2023-04-16T17:24:44.622Z,10.37
2023-04-16T17:27:11.160Z,10.34
2023-04-16T17:29:37.521Z,10.30
2023-04-16T17:32:04.289Z,10.27
2023-04-16T17:34:30.781Z,10.24
2023-04-16T17:36:57.176Z,10.21
2023-04-16T17:39:23.594Z,10.21
2023-04-16T17:41:54.205Z,10.15
2023-04-16T17:44:20.906Z,10.17
2023-04-16T17:46:47.293Z,10.13
2023-04-16T17:49:13.660Z,10.09
2023-04-16T17:51:41.017Z,10.07
2023-04-16T17:54:07.430Z,10.06
2023-04-16T17:56:33.839Z,10.06
2023-04-16T17:59:00.678Z,10.03
2023-04-16T18:01:27.522Z,10.02
2023-04-16T18:03:54.337Z,10.01
2023-04-16T18:06:20.985Z,10.00
2023-04-16T18:08:47.330Z,9.99
2023-04-16T18:11:13.714Z,9.98
2023-04-16T18:13:40.480Z,9.97
2023-04-16T18:16:13.398Z,9.96
2023-04-16T18:18:39.810Z,9.93
2023-04-16T18:21:06.186Z,9.92
2023-04-16T18:23:32.641Z,9.90
2023-04-16T18:25:59.012Z,9.89
2023-04-16T18:28:26.795Z,9.87
2023-04-16T18:30:53.425Z,9.86
2023-04-16T18:33:44.464Z,9.83
2023-04-16T18:36:06.630Z,9.80
2023-04-16T18:38:33.112Z,9.78
2023-04-16T18:40:59.605Z,9.75
2023-04-16T18:43:26.135Z,9.72
2023-04-16T18:45:52.582Z,9.72
2023-04-16T18:48:19.001Z,9.70
2023-04-16T18:50:45.573Z,9.68
2023-04-16T18:53:12.045Z,9.65
2023-04-16T18:55:38.400Z,9.63
2023-04-16T18:58:04.851Z,9.63
2023-04-16T19:00:31.620Z,9.59
2023-04-16T19:02:58.025Z,9.59
2023-04-16T19:05:24.461Z,9.58
2023-04-16T19:07:50.903Z,9.57
2023-04-16T19:10:17.464Z,9.55
2023-04-16T19:12:43.878Z,9.56
2023-04-16T19:15:10.907Z,9.56
2023-04-16T19:17:37.288Z,9.54
2023-04-16T19:20:08.390Z,9.54
2023-04-16T19:22:34.765Z,9.56
2023-04-16T19:25:01.922Z,9.57
2023-04-16T19:27:31.694Z,9.56
2023-04-16T19:29:58.117Z,9.53
2023-04-16T19:32:24.599Z,9.52
2023-04-16T19:34:51.001Z,9.51
2023-04-16T19:37:17.451Z,9.51
2023-04-16T19:39:43.850Z,9.51
2023-04-16T19:42:10.315Z,9.51
2023-04-16T19:44:36.757Z,9.49
2023-04-16T19:47:03.221Z,9.49
2023-04-16T19:49:29.649Z,9.48
2023-04-16T19:51:56.005Z,9.48
2023-04-16T19:54:22.351Z,9.47
2023-04-16T19:56:51.663Z,9.43
2023-04-16T19:59:18.084Z,9.43
2023-04-16T20:01:44.679Z,9.43
2023-04-16T20:04:11.520Z,9.43
2023-04-16T20:06:37.978Z,9.42
2023-04-16T20:09:04.919Z,9.40
2023-04-16T20:11:31.317Z,9.39
2023-04-16T20:14:00.291Z,9.38
2023-04-16T20:16:26.853Z,9.39
2023-04-16T20:18:54.369Z,9.38
2023-04-16T20:21:25.124Z,9.37
2023-04-16T20:23:51.491Z,9.36
2023-04-16T20:26:19.254Z,9.35
2023-04-16T20:28:45.897Z,9.35
2023-04-16T20:31:12.912Z,9.33
2023-04-16T20:33:39.402Z,9.33
2023-04-16T20:36:06.727Z,9.32
2023-04-16T20:38:34.296Z,9.32
2023-04-16T20:41:10.571Z,9.33
2023-04-16T20:43:42.002Z,9.32
2023-04-16T20:46:08.999Z,9.34
2023-04-16T20:48:35.529Z,9.36
2023-04-16T20:51:03.727Z,9.38
2023-04-16T20:53:33.777Z,9.36
2023-04-16T20:56:00.548Z,9.36
2023-04-16T20:58:29.780Z,9.35
2023-04-16T21:00:57.539Z,9.32
2023-04-16T21:03:24.663Z,9.30
2023-04-16T21:05:55.809Z,9.30
2023-04-16T21:08:23.555Z,9.30
2023-04-16T21:10:50.887Z,9.30
2023-04-16T21:13:17.271Z,9.29
2023-04-16T21:15:44.753Z,9.27
2023-04-16T21:18:11.513Z,9.27
2023-04-16T21:20:38.852Z,9.25
2023-04-16T21:23:06.039Z,9.26
2023-04-16T21:25:33.500Z,9.24
2023-04-16T21:27:59.933Z,9.24
2023-04-16T21:30:26.450Z,9.21
2023-04-16T21:32:52.903Z,9.21
2023-04-16T21:35:19.436Z,9.21
2023-04-16T21:37:45.822Z,9.22
2023-04-16T21:40:12.371Z,9.23
2023-04-16T21:42:42.393Z,9.24
2023-04-16T21:45:10.141Z,9.20
2023-04-16T21:47:37.176Z,9.20
2023-04-16T21:50:04.004Z,9.21
2023-04-16T21:52:30.543Z,9.20
2023-04-16T21:54:56.901Z,9.21
2023-04-16T21:57:23.451Z,9.20
2023-04-16T21:59:49.860Z,9.19
2023-04-16T22:02:16.432Z,9.16
2023-04-16T22:04:43.603Z,9.18
2023-04-16T22:07:10.057Z,9.14
2023-04-16T22:09:36.543Z,9.11
2023-04-16T22:12:03.111Z,9.09
2023-04-16T22:14:30.174Z,9.07
2023-04-16T22:16:56.639Z,9.06
2023-04-16T22:19:23.083Z,9.07
2023-04-16T22:21:49.489Z,9.05
2023-04-16T22:24:15.863Z,9.05
2023-04-16T22:26:42.428Z,9.05
2023-04-16T22:29:08.847Z,9.04
2023-04-16T22:31:35.447Z,9.04
2023-04-16T22:34:03.444Z,9.04
2023-04-16T22:36:30.913Z,9.04
2023-04-16T22:38:57.305Z,9.00
2023-04-16T22:41:23.837Z,9.00
2023-04-16T22:43:52.485Z,8.98
2023-04-16T22:46:22.357Z,8.97
2023-04-16T22:48:48.815Z,8.97
2023-04-16T22:51:15.280Z,8.97
2023-04-16T22:53:41.804Z,8.97
2023-04-16T22:56:08.253Z,8.95
2023-04-16T22:58:34.651Z,8.95
2023-04-16T23:01:01.692Z,8.93
2023-04-16T23:03:28.256Z,8.93
2023-04-16T23:05:54.803Z,8.93
2023-04-16T23:08:21.174Z,8.94
2023-04-16T23:10:47.542Z,8.93
2023-04-16T23:13:13.911Z,8.93
2023-04-16T23:15:40.479Z,8.92
2023-04-16T23:18:06.953Z,8.93
2023-04-16T23:20:33.383Z,8.93
2023-04-16T23:22:59.735Z,8.93
2023-04-16T23:25:26.221Z,8.92
2023-04-16T23:27:52.570Z,8.90
2023-04-16T23:30:19.028Z,8.90
2023-04-16T23:32:45.502Z,8.89
2023-04-16T23:35:11.917Z,8.89
2023-04-16T23:37:38.265Z,8.85
2023-04-16T23:40:05.262Z,8.83
2023-04-16T23:42:31.642Z,8.85
2023-04-16T23:44:58.116Z,8.86
2023-04-16T23:47:24.509Z,8.83
2023-04-16T23:49:50.996Z,8.85
2023-04-16T23:52:17.442Z,8.87
2023-04-16T23:54:43.850Z,8.86
2023-04-16T23:57:10.345Z,8.86
2023-04-16T23:59:36.682Z,8.81
